Time,TemperatureF,DewpointF,PressureIn,WindDirection,WindDirectionDegrees,WindSpeedMPH,WindSpeedGustMPH,Humidity,HourlyPrecipIn,Conditions,Clouds,dailyrainin,SoftwareType,DateUTC
2013-02-22 00:01:00,22.9,20.1,29.90,North,360,0.0,0.0,89,0.00,,---,0.00,VWS V12.07,2013-02-22 07:01:00,
2013-02-22 00:16:00,23.0,20.2,29.90,North,360,0.0,0.0,89,0.00,,---,0.00,VWS V12.07,2013-02-22 07:16:00,
2013-02-22 00:31:00,22.8,20.0,29.90,NNE,28,0.0,0.0,89,0.00,,---,0.00,VWS V12.07,2013-02-22 07:31:00,
2013-02-22 00:46:00,22.6,19.9,29.90,NE,35,0.0,4.0,89,0.00,,---,0.00,VWS V12.07,2013-02-22 07:46:00,
2013-02-22 01:01:00,22.5,19.8,29.91,NE,34,0.0,0.0,89,0.00,,---,0.00,VWS V12.07,2013-02-22 08:01:00,
2013-02-22 01:16:00,22.4,19.7,29.92,NE,34,0.0,0.0,89,0.00,,---,0.00,VWS V12.07,2013-02-22 08:16:00,
2013-02-22 01:31:00,22.3,19.6,29.92,NE,34,0.0,0.0,89,0.00,,---,0.00,VWS V12.07,2013-02-22 08:31:00,
2013-02-22 01:46:00,22.3,19.6,29.92,NE,36,0.0,0.0,89,0.00,,---,0.00,VWS V12.07,2013-02-22 08:46:00,
2013-02-22 02:01:00,22.3,19.6,29.92,NE,36,0.0,0.0,89,0.00,,---,0.00,VWS V12.07,2013-02-22 09:01:00,
2013-02-22 02:16:00,22.1,19.4,29.89,NE,36,0.0,0.0,89,0.00,,---,0.00,VWS V12.07,2013-02-22 09:16:00,
2013-02-22 02:31:00,21.9,19.2,29.89,NE,36,0.0,0.0,89,0.00,,---,0.00,VWS V12.07,2013-02-22 09:31:00,
2013-02-22 02:46:00,21.5,18.8,29.89,NE,36,0.0,0.0,89,0.00,,---,0.00,VWS V12.07,2013-02-22 09:46:00,
2013-02-22 03:01:00,21.3,18.6,29.91,NE,35,0.0,0.0,89,0.00,,---,0.00,VWS V12.07,2013-02-22 10:01:00,
2013-02-22 03:16:00,21.3,18.6,29.90,NE,35,0.0,0.0,89,0.00,,---,0.00,VWS V12.07,2013-02-22 10:16:00,
2013-02-22 03:31:00,21.2,18.5,29.90,NE,36,0.0,0.0,89,0.00,,---,0.00,VWS V12.07,2013-02-22 10:31:00,
2013-02-22 03:46:00,21.1,18.4,29.90,NE,35,0.0,0.0,89,0.00,,---,0.00,VWS V12.07,2013-02-22 10:46:00,
2013-02-22 04:01:00,20.9,18.2,29.90,NE,35,0.0,0.0,89,0.00,,---,0.00,VWS V12.07,2013-02-22 11:01:00,
2013-02-22 04:16:00,20.8,18.1,29.92,NE,34,0.0,0.0,89,0.00,,---,0.00,VWS V12.07,2013-02-22 11:16:00,
2013-02-22 04:31:00,21.0,18.3,29.92,NE,35,0.0,0.0,89,0.00,,---,0.00,VWS V12.07,2013-02-22 11:31:00,
2013-02-22 04:46:00,21.0,18.3,29.92,NE,34,0.0,0.0,89,0.00,,---,0.00,VWS V12.07,2013-02-22 11:46:00,
2013-02-22 05:01:00,20.8,18.1,29.92,NE,35,0.0,0.0,89,0.00,,---,0.00,VWS V12.07,2013-02-22 12:01:00,
2013-02-22 05:16:00,20.6,17.6,29.94,NE,34,0.0,0.0,88,0.00,,---,0.00,VWS V12.07,2013-02-22 12:16:00,
2013-02-22 05:31:00,20.6,17.6,29.94,NE,36,0.0,0.0,88,0.00,,---,0.00,VWS V12.07,2013-02-22 12:31:00,
2013-02-22 05:46:00,20.6,17.6,29.94,NE,36,0.0,0.0,88,0.00,,---,0.00,VWS V12.07,2013-02-22 12:46:00,
2013-02-22 06:01:00,20.7,17.7,29.95,NE,36,0.0,0.0,88,0.00,,---,0.00,VWS V12.07,2013-02-22 13:01:00,
2013-02-22 06:16:00,20.8,17.8,29.97,NE,36,0.0,0.0,88,0.00,,---,0.00,VWS V12.07,2013-02-22 13:16:00,
2013-02-22 06:31:00,20.8,18.1,29.97,NE,36,0.0,0.0,89,0.00,,---,0.00,VWS V12.07,2013-02-22 13:31:00,
2013-02-22 06:46:00,20.7,18.0,29.97,NE,36,0.0,0.0,89,0.00,,---,0.00,VWS V12.07,2013-02-22 13:46:00,
2013-02-22 07:01:00,20.8,18.1,29.97,NE,36,0.0,0.0,89,0.00,,---,0.00,VWS V12.07,2013-02-22 14:01:00,
2013-02-22 07:16:00,20.9,18.2,29.98,NE,36,0.0,0.0,89,0.00,,---,0.00,VWS V12.07,2013-02-22 14:16:00,
2013-02-22 07:31:00,21.0,18.3,29.98,NE,36,0.0,0.0,89,0.00,,---,0.00,VWS V12.07,2013-02-22 14:31:00,
2013-02-22 07:46:00,21.3,18.6,29.98,NE,36,0.0,0.0,89,0.00,,---,0.00,VWS V12.07,2013-02-22 14:46:00,
2013-02-22 08:01:00,21.6,18.9,29.97,NE,36,0.0,0.0,89,0.00,,---,0.00,VWS V12.07,2013-02-22 15:01:00,
2013-02-22 09:16:00,21.9,18.9,29.98,North,5,2.0,9.0,88,0.00,,---,0.00,VWS V12.07,2013-02-22 16:16:00,
2013-02-22 09:31:00,21.2,18.2,30.00,North,11,2.0,4.0,88,0.00,,---,0.00,VWS V12.07,2013-02-22 16:31:00,
2013-02-22 09:47:00,21.3,18.3,30.00,NNE,19,1.0,7.0,88,0.00,,---,0.00,VWS V12.07,2013-02-22 16:47:00,
2013-02-22 10:01:00,21.5,18.5,30.01,North,355,7.0,8.0,88,0.00,,---,0.00,VWS V12.07,2013-02-22 17:01:00,
2013-02-22 10:16:00,21.6,18.6,30.01,NNE,17,1.0,8.0,88,0.00,,---,0.00,VWS V12.07,2013-02-22 17:16:00,
2013-02-22 10:47:00,21.8,18.8,30.02,North,360,4.0,9.0,88,0.00,,---,0.00,VWS V12.07,2013-02-22 17:47:00,
2013-02-22 11:01:00,21.7,18.7,30.02,NNE,26,1.0,9.0,88,0.00,,---,0.00,VWS V12.07,2013-02-22 18:01:00,
2013-02-22 11:16:00,21.9,18.9,30.02,North,11,3.0,9.0,88,0.00,,---,0.00,VWS V12.07,2013-02-22 18:16:00,
2013-02-22 11:31:00,21.8,18.8,30.03,NNE,24,4.0,4.0,88,0.00,,---,0.00,VWS V12.07,2013-02-22 18:31:00,
2013-02-22 11:46:00,22.0,19.0,30.03,North,355,9.0,11.0,88,0.00,,---,0.00,VWS V12.07,2013-02-22 18:46:00,
2013-02-22 12:01:00,22.0,19.0,30.03,NNE,15,5.0,9.0,88,0.00,,---,0.00,VWS V12.07,2013-02-22 19:01:00,
2013-02-22 12:16:00,21.9,18.9,30.03,North,9,5.0,12.0,88,0.00,,---,0.00,VWS V12.07,2013-02-22 19:16:00,
2013-02-22 12:31:00,21.6,18.6,30.03,North,9,6.0,7.0,88,0.00,,---,0.00,VWS V12.07,2013-02-22 19:31:00,
2013-02-22 12:46:00,21.0,18.0,30.03,NNE,12,10.0,14.0,88,0.00,,---,0.00,VWS V12.07,2013-02-22 19:46:00,
2013-02-22 13:01:00,21.1,18.1,30.03,NNW,337,10.0,10.0,88,0.00,,---,0.00,VWS V12.07,2013-02-22 20:01:00,
2013-02-22 13:16:00,20.5,17.5,30.04,NNE,15,4.0,16.0,88,0.00,,---,0.00,VWS V12.07,2013-02-22 20:16:00,
2013-02-22 13:31:00,21.0,18.0,30.04,NNE,15,6.0,6.0,88,0.00,,---,0.00,VWS V12.07,2013-02-22 20:31:00,
2013-02-22 13:46:00,21.2,18.2,30.04,NNE,14,4.0,13.0,88,0.00,,---,0.00,VWS V12.07,2013-02-22 20:46:00,
2013-02-22 14:01:00,21.1,18.1,30.04,NNE,13,7.0,7.0,88,0.00,,---,0.00,VWS V12.07,2013-02-22 21:01:00,
2013-02-22 14:16:00,21.6,18.9,30.04,North,349,0.0,10.0,89,0.00,,---,0.00,VWS V12.07,2013-02-22 21:16:00,
2013-02-22 14:31:00,21.6,18.6,30.05,NNE,13,9.0,9.0,88,0.00,,---,0.00,VWS V12.07,2013-02-22 21:31:00,
2013-02-22 14:46:00,21.0,18.0,30.05,North,355,6.0,14.0,88,0.00,,---,0.00,VWS V12.07,2013-02-22 21:46:00,
2013-02-22 15:01:00,21.5,18.5,30.06,North,360,2.0,2.0,88,0.00,,---,0.00,VWS V12.07,2013-02-22 22:01:00,
2013-02-22 15:16:00,21.6,18.6,30.06,North,360,0.0,7.0,88,0.00,,---,0.00,VWS V12.07,2013-02-22 22:16:00,
2013-02-22 15:31:00,21.3,18.3,30.06,NNE,13,3.0,3.0,88,0.00,,---,0.00,VWS V12.07,2013-02-22 22:31:00,
2013-02-22 15:46:00,21.6,18.6,30.06,North,355,0.0,6.0,88,0.00,,---,0.00,VWS V12.07,2013-02-22 22:46:00,
2013-02-22 16:01:00,21.6,18.6,30.07,North,355,0.0,0.0,88,0.00,,---,0.00,VWS V12.07,2013-02-22 23:01:00,
2013-02-22 16:16:00,21.7,18.7,30.07,North,355,0.0,0.0,88,0.00,,---,0.00,VWS V12.07,2013-02-22 23:16:00,
2013-02-22 17:02:00,21.6,18.3,30.08,North,355,0.0,0.0,87,0.00,,---,0.00,VWS V12.07,2013-02-23 00:02:00,
2013-02-22 17:16:00,21.4,18.1,30.09,North,355,0.0,0.0,87,0.00,,---,0.00,VWS V12.07,2013-02-23 00:16:00,
2013-02-22 17:31:00,20.9,17.6,30.09,NNE,22,0.0,0.0,87,0.00,,---,0.00,VWS V12.07,2013-02-23 00:31:00,
2013-02-22 17:46:00,19.7,16.5,30.11,NNE,22,0.0,0.0,87,0.00,,---,0.00,VWS V12.07,2013-02-23 00:46:00,
2013-02-22 18:01:00,18.4,15.2,30.13,NNE,22,3.0,4.0,87,0.00,,---,0.00,VWS V12.07,2013-02-23 01:01:00,
2013-02-22 18:16:00,16.5,13.1,30.15,ESE,108,4.0,5.0,86,0.00,,---,0.00,VWS V12.07,2013-02-23 01:16:00,
2013-02-22 18:31:00,16.2,13.0,30.17,ESE,108,3.0,3.0,87,0.00,,---,0.00,VWS V12.07,2013-02-23 01:31:00,
2013-02-22 18:46:00,15.7,12.3,30.17,ESE,108,5.0,6.0,86,0.00,,---,0.00,VWS V12.07,2013-02-23 01:46:00,
2013-02-22 19:01:00,15.5,12.1,30.19,ESE,107,5.0,5.0,86,0.00,,---,0.00,VWS V12.07,2013-02-23 02:01:00,
2013-02-22 19:16:00,14.8,11.1,30.19,ESE,108,5.0,7.0,85,0.00,,---,0.00,VWS V12.07,2013-02-23 02:16:00,
2013-02-22 19:31:00,13.5,9.8,30.19,ESE,108,2.0,3.0,85,0.00,,---,0.00,VWS V12.07,2013-02-23 02:31:00,
2013-02-22 19:46:00,12.3,8.4,30.23,ESE,108,0.0,4.0,84,0.00,,---,0.00,VWS V12.07,2013-02-23 02:46:00,
2013-02-22 20:01:00,12.2,8.6,30.22,ESE,108,1.0,2.0,85,0.00,,---,0.00,VWS V12.07,2013-02-23 03:01:00,
2013-02-22 20:16:00,12.8,8.9,30.23,ESE,108,3.0,5.0,84,0.00,,---,0.00,VWS V12.07,2013-02-23 03:16:00,
2013-02-22 20:31:00,12.8,8.9,30.22,ESE,108,1.0,2.0,84,0.00,,---,0.00,VWS V12.07,2013-02-23 03:31:00,
2013-02-22 20:46:00,12.2,8.3,30.23,ESE,107,2.0,6.0,84,0.00,,---,0.00,VWS V12.07,2013-02-23 03:46:00,
2013-02-22 21:01:00,13.4,9.5,30.23,ESE,108,0.0,0.0,84,0.00,,---,0.00,VWS V12.07,2013-02-23 04:01:00,
2013-02-22 21:16:00,12.4,8.0,30.23,ESE,107,1.0,4.0,82,0.00,,---,0.00,VWS V12.07,2013-02-23 04:16:00,
2013-02-22 21:31:00,10.3,5.6,30.26,ESE,108,2.0,2.0,81,0.00,,---,0.00,VWS V12.07,2013-02-23 04:31:00,
2013-02-22 21:46:00,8.8,4.4,30.28,ESE,108,2.0,4.0,82,0.00,,---,0.00,VWS V12.07,2013-02-23 04:46:00,
2013-02-22 22:01:00,9.9,5.8,30.27,ESE,108,2.0,3.0,83,0.00,,---,0.00,VWS V12.07,2013-02-23 05:01:00,
2013-02-22 22:16:00,9.4,4.8,30.27,ESE,108,3.0,5.0,81,0.00,,---,0.00,VWS V12.07,2013-02-23 05:16:00,
2013-02-22 22:31:00,9.1,4.7,30.29,ESE,108,5.0,6.0,82,0.00,,---,0.00,VWS V12.07,2013-02-23 05:31:00,
2013-02-22 22:46:00,9.9,5.2,30.27,ESE,108,4.0,7.0,81,0.00,,---,0.00,VWS V12.07,2013-02-23 05:46:00,
2013-02-22 23:01:00,9.9,5.2,30.27,ESE,108,5.0,5.0,81,0.00,,---,0.00,VWS V12.07,2013-02-23 06:01:00,
2013-02-22 23:16:00,10.5,5.6,30.27,ESE,109,3.0,10.0,80,0.00,,---,0.00,VWS V12.07,2013-02-23 06:16:00,
2013-02-22 23:31:00,8.3,3.1,30.30,ESE,109,2.0,2.0,79,0.00,,---,0.00,VWS V12.07,2013-02-23 06:31:00,
2013-02-22 23:46:00,7.8,3.2,30.29,ESE,109,3.0,7.0,81,0.00,,---,0.00,VWS V12.07,2013-02-23 06:46:00,